Schedule Details


Flight Number: CTN673
Departure: Pula (LDPL) at 16:30
Arrival: Franjo Tudman (LDZA) at 17:10
Route: RJK UT742 KOTOR

Weather Information
LDPL 221630Z 14005KT 100V180 9999 SCT015 BKN022 20/17 Q1016 NOSIG
LDZA 221630Z VRB02KT CAVOK 18/12 Q1016 NOSIG
Schedule Frequency

Route Map